Time;durP1;ratioP1;P1;durP2;ratioP2;P2;SDS_P1;SDS_P2;PMS_P1;PMS_P2;Temp;Humidity;BMP_temperature;BMP_pressure;BME280_temperature;BME280_humidity;BME280_pressure;Samples;Min_cycle;Max_cycle;Signal;HPM_P1;HPM_P2
2023/08/12 00:01:19;;;;;;;;;;;;;;;25.49;50.44;101408.63;6254104;23;19915;-76
2023/08/12 00:04:11;;;;;;;;;;;;;;;25.48;50.16;101404.22;6253077;23;19911;-76
2023/08/12 00:07:04;;;;;;;;;;;;;;;25.46;50.54;101401.03;6254043;23;19916;-76
2023/08/12 00:09:56;;;;;;;;;;;;;;;25.63;51.65;101393.09;6253778;23;19920;-76
2023/08/12 00:12:48;;;;;;;;;;;;;;;25.94;51.28;101398.56;6252819;23;19912;-76
2023/08/12 00:15:40;;;;;;;;;;;;;;;26.05;50.76;101397.75;6232021;23;20251;-76
2023/08/12 00:18:32;;;;;;;;;;;;;;;25.86;50.07;101399.78;6253576;23;19912;-76
2023/08/12 00:21:24;;;;;;;;;;;;;;;25.95;50.51;101396.59;6252761;23;20327;-76
2023/08/12 00:24:16;;;;;;;;;;;;;;;25.83;50.28;101397.00;6254158;23;19915;-75
2023/08/12 00:27:08;;;;;;;;;;;;;;;25.95;50.59;101391.00;6254841;23;19912;-76
2023/08/12 00:30:00;;;;;;;;;;;;;;;26.10;50.49;101397.31;6232929;23;19916;-76
2023/08/12 00:32:50;;;;;;;;;;;;;;;26.21;50.01;101386.94;6254828;23;19912;-76
2023/08/12 00:35:42;;;;;;;;;;;;;;;26.26;49.89;101392.09;6256613;23;19920;-77
2023/08/12 00:38:32;;;;;;;;;;;;;;;26.28;49.61;101398.06;6254000;23;19911;-77
2023/08/12 00:41:24;;;;;;;;;;;;;;;26.30;49.61;101392.88;6233381;23;19912;-77
2023/08/12 00:44:16;;;;;;;;;;;;;;;26.30;49.31;101398.47;6254993;23;19915;-78
2023/08/12 00:47:09;;;;;;;;;;;;;;;26.30;49.43;101393.69;6233341;23;20339;-77
2023/08/12 00:50:01;;;;;;;;;;;;;;;26.29;49.45;101397.66;6233537;23;19915;-77
2023/08/12 00:52:53;;;;;;;;;;;;;;;26.29;49.43;101399.66;6255034;23;19916;-77
2023/08/12 00:55:45;;;;;;;;;;;;;;;26.27;49.33;101396.47;6233306;23;19912;-77
2023/08/12 00:58:37;;;;;;;;;;;;;;;26.23;49.50;101395.69;6232949;23;20255;-78
2023/08/12 01:01:29;;;;;;;;;;;;;;;26.21;49.56;101398.84;6233882;23;20255;-77
2023/08/12 01:04:21;;;;;;;;;;;;;;;26.21;49.83;101387.69;6255164;23;19912;-77
2023/08/12 01:07:13;;;;;;;;;;;;;;;26.21;50.01;101393.28;6255009;23;19916;-77
2023/08/12 01:10:03;;;;;;;;;;;;;;;26.17;49.96;101389.72;6233610;23;20347;-76
2023/08/12 01:12:56;;;;;;;;;;;;;;;26.20;50.18;101390.91;6256615;23;19912;-77
2023/08/12 01:15:50;;;;;;;;;;;;;;;26.18;50.03;101382.13;6234186;23;19915;-77
2023/08/12 01:18:39;;;;;;;;;;;;;;;26.17;50.08;101386.91;6254838;23;19912;-76
2023/08/12 01:21:32;;;;;;;;;;;;;;;26.18;50.25;101376.56;6234071;23;19911;-76
2023/08/12 01:24:24;;;;;;;;;;;;;;;26.18;50.47;101377.34;6233347;23;19915;-77
2023/08/12 01:27:16;;;;;;;;;;;;;;;26.17;50.32;101378.56;6233274;23;19912;-76
2023/08/12 01:30:08;;;;;;;;;;;;;;;26.20;50.64;101376.97;6248777;23;20359;-76
2023/08/12 01:33:04;;;;;;;;;;;;;;;26.22;50.36;101371.78;6233585;23;19911;-76
2023/08/12 01:35:56;;;;;;;;;;;;;;;26.20;50.71;101366.59;6254455;23;19912;-78
2023/08/12 01:38:49;;;;;;;;;;;;;;;26.20;50.70;101368.59;6232536;23;19912;-77
2023/08/12 01:41:41;;;;;;;;;;;;;;;26.18;50.70;101371.78;6255514;23;19911;-78
2023/08/12 01:44:30;;;;;;;;;;;;;;;26.14;50.71;101371.00;6255713;23;19912;-78
2023/08/12 01:47:22;;;;;;;;;;;;;;;26.13;51.00;101372.22;6232808;23;19912;-77
2023/08/12 01:50:16;;;;;;;;;;;;;;;26.12;50.94;101367.81;6233441;23;19915;-78
2023/08/12 01:53:08;;;;;;;;;;;;;;;26.12;50.91;101373.41;6254375;23;19912;-76
2023/08/12 01:55:58;;;;;;;;;;;;;;;26.10;51.15;101367.44;6233566;23;20335;-77
2023/08/12 01:58:48;;;;;;;;;;;;;;;26.11;51.24;101371.03;6254203;23;19911;-77
2023/08/12 02:01:40;;;;;;;;;;;;;;;26.08;51.21;101355.91;6232996;23;19911;-78
2023/08/12 02:04:30;;;;;;;;;;;;;;;26.09;51.41;101363.06;6233589;23;20331;-77
2023/08/12 02:07:22;;;;;;;;;;;;;;;26.10;51.16;101361.09;6232890;23;19911;-77
2023/08/12 02:10:14;;;;;;;;;;;;;;;25.98;51.10;101346.41;6255061;23;19923;-77
2023/08/12 02:13:06;;;;;;;;;;;;;;;26.08;51.24;101355.91;6233254;23;19911;-77
2023/08/12 02:15:55;;;;;;;;;;;;;;;26.05;51.41;101353.94;6232472;23;19911;-77
2023/08/12 02:18:47;;;;;;;;;;;;;;;26.06;51.44;101355.50;6253749;23;19911;-78
2023/08/12 02:21:39;;;;;;;;;;;;;;;26.01;51.08;101347.56;6232509;23;19915;-77
2023/08/12 02:24:31;;;;;;;;;;;;;;;26.06;51.30;101346.38;6232718;23;19912;-78
2023/08/12 02:27:23;;;;;;;;;;;;;;;26.09;51.32;101348.34;6233647;23;19915;-78
2023/08/12 02:30:15;;;;;;;;;;;;;;;26.07;51.46;101343.16;6253950;23;19919;-77
2023/08/12 02:33:05;;;;;;;;;;;;;;;26.08;51.24;101339.16;6255615;23;19915;-78
2023/08/12 02:35:57;;;;;;;;;;;;;;;26.02;51.64;101342.78;6232440;23;19912;-78
2023/08/12 02:38:48;;;;;;;;;;;;;;;26.06;51.50;101341.56;6232677;23;19912;-78
2023/08/12 02:41:40;;;;;;;;;;;;;;;26.02;51.50;101332.44;6233187;23;19915;-79
2023/08/12 02:44:32;;;;;;;;;;;;;;;26.02;51.50;101338.00;6233007;23;19911;-78
2023/08/12 02:47:24;;;;;;;;;;;;;;;26.02;51.34;101332.44;6255533;23;20250;-77
2023/08/12 02:50:16;;;;;;;;;;;;;;;26.04;51.31;101332.81;6253874;23;19915;-76
2023/08/12 02:53:08;;;;;;;;;;;;;;;26.03;51.60;101334.03;6255470;23;19912;-77
2023/08/12 02:56:00;;;;;;;;;;;;;;;26.04;51.35;101332.03;6233298;23;19915;-77
2023/08/12 02:58:52;;;;;;;;;;;;;;;26.01;51.59;101325.25;6254947;23;20254;-77
2023/08/12 03:01:44;;;;;;;;;;;;;;;26.01;51.40;101328.03;6232786;23;20255;-77
2023/08/12 03:04:36;;;;;;;;;;;;;;;26.02;51.39;101324.06;6233249;23;19916;-77
2023/08/12 03:07:28;;;;;;;;;;;;;;;26.01;51.71;101322.47;6233347;23;19912;-76
2023/08/12 03:10:17;;;;;;;;;;;;;;;25.97;51.76;101316.13;6253698;23;20263;-76
2023/08/12 03:13:09;;;;;;;;;;;;;;;25.94;51.60;101322.53;6253576;23;19912;-77
2023/08/12 03:16:01;;;;;;;;;;;;;;;25.91;51.92;101314.97;6232319;23;19915;-78
2023/08/12 03:18:54;;;;;;;;;;;;;;;25.89;51.85;101320.97;6232310;23;19912;-76
2023/08/12 03:21:46;;;;;;;;;;;;;;;25.89;51.65;101317.38;6232037;23;20251;-76
2023/08/12 03:24:38;;;;;;;;;;;;;;;25.88;51.90;101315.78;6232927;23;19912;-76
2023/08/12 03:27:30;;;;;;;;;;;;;;;25.87;51.92;101314.97;6232452;23;19912;-76
2023/08/12 03:30:22;;;;;;;;;;;;;;;25.86;52.10;101312.59;6254698;23;19916;-76
2023/08/12 03:33:14;;;;;;;;;;;;;;;25.88;51.89;101319.38;6255078;23;19915;-76
2023/08/12 03:36:06;;;;;;;;;;;;;;;25.87;51.72;101317.75;6255047;23;19912;-76
2023/08/12 03:38:58;;;;;;;;;;;;;;;25.87;51.66;101316.97;6231857;23;20255;-77
2023/08/12 03:41:50;;;;;;;;;;;;;;;25.87;51.95;101316.97;6231829;23;19915;-76
2023/08/12 03:44:41;;;;;;;;;;;;;;;25.86;51.96;101318.97;6232605;23;19915;-77
2023/08/12 03:47:33;;;;;;;;;;;;;;;25.85;51.90;101320.16;6253231;23;20259;-77
2023/08/12 03:50:25;;;;;;;;;;;;;;;25.84;51.92;101320.59;6254094;23;19916;-77
2023/08/12 03:53:17;;;;;;;;;;;;;;;25.84;51.84;101326.16;6232587;23;20257;-77
2023/08/12 03:56:06;;;;;;;;;;;;;;;25.82;52.01;101322.97;6231946;23;19911;-76
2023/08/12 03:58:58;;;;;;;;;;;;;;;25.81;51.98;101319.38;6252721;23;19912;-77
2023/08/12 04:01:50;;;;;;;;;;;;;;;25.80;51.92;101323.34;6231420;23;19912;-77
2023/08/12 04:04:42;;;;;;;;;;;;;;;25.78;52.05;101316.63;6253499;23;20258;-77
2023/08/12 04:07:34;;;;;;;;;;;;;;;25.80;51.93;101320.56;6232206;23;19916;-76
2023/08/12 04:10:26;;;;;;;;;;;;;;;25.79;51.87;101323.78;6231696;23;19915;-77
2023/08/12 04:13:18;;;;;;;;;;;;;;;25.78;51.77;101325.78;6211268;23;19915;-76
2023/08/12 04:16:10;;;;;;;;;;;;;;;25.76;52.16;101328.16;6232459;23;19912;-77
2023/08/12 04:19:01;;;;;;;;;;;;;;;25.76;51.96;101325.38;6231853;23;19911;-77
2023/08/12 04:21:51;;;;;;;;;;;;;;;25.74;51.90;101321.41;6232304;23;19911;-76
2023/08/12 04:24:43;;;;;;;;;;;;;;;25.72;51.93;101321.81;6253421;23;19916;-77
2023/08/12 04:27:34;;;;;;;;;;;;;;;25.72;52.01;101315.44;6254624;23;20308;-76
2023/08/12 04:30:27;;;;;;;;;;;;;;;25.72;52.15;101323.81;6231820;23;20251;-77
2023/08/12 04:33:19;;;;;;;;;;;;;;;25.72;52.09;101324.59;6231842;23;19915;-76
2023/08/12 04:36:09;;;;;;;;;;;;;;;25.75;52.16;101317.44;6232050;23;19911;-76
2023/08/12 04:39:00;;;;;;;;;;;;;;;25.69;52.21;101319.84;6232070;23;20331;-76
2023/08/12 04:41:53;;;;;;;;;;;;;;;25.67;52.03;101319.44;6231862;23;19915;-76
2023/08/12 04:44:45;;;;;;;;;;;;;;;25.68;52.31;101317.47;6231489;23;19911;-77
2023/08/12 04:47:37;;;;;;;;;;;;;;;25.69;52.20;101319.84;6231729;23;20331;-77
2023/08/12 04:50:31;;;;;;;;;;;;;;;25.69;52.26;101319.03;6231014;23;19920;-77
2023/08/12 04:53:23;;;;;;;;;;;;;;;25.71;52.05;101317.44;6253019;23;19911;-76
2023/08/12 04:56:15;;;;;;;;;;;;;;;25.72;52.22;101323.81;6232007;23;19911;-76
2023/08/12 04:59:08;;;;;;;;;;;;;;;25.73;52.20;101325.41;6231050;23;20335;-76
2023/08/12 05:02:00;;;;;;;;;;;;;;;25.76;52.13;101324.56;6231696;23;20242;-77
2023/08/12 05:04:55;;;;;;;;;;;;;;;25.77;52.22;101320.59;6232014;23;19911;-76
2023/08/12 05:07:44;;;;;;;;;;;;;;;25.75;52.27;101323.78;6253169;23;19911;-76
2023/08/12 05:10:36;;;;;;;;;;;;;;;25.67;52.40;101327.81;6231197;23;19916;-76
2023/08/12 05:13:28;;;;;;;;;;;;;;;25.57;52.70;101317.50;6231450;23;19912;-76
2023/08/12 05:16:20;;;;;;;;;;;;;;;25.58;52.71;101321.06;6233283;23;20267;-76
2023/08/12 05:19:12;;;;;;;;;;;;;;;25.54;52.91;101313.50;6233732;23;19912;-78
2023/08/12 05:22:03;;;;;;;;;;;;;;;25.53;52.90;101317.47;6256054;23;19911;-78
2023/08/12 05:24:55;;;;;;;;;;;;;;;25.57;52.75;101322.25;6254810;23;20246;-78
2023/08/12 05:27:47;;;;;;;;;;;;;;;25.57;52.80;101319.47;6255637;23;19911;-77
2023/08/12 05:30:39;;;;;;;;;;;;;;;25.61;52.81;101317.47;6233346;23;20614;-77
2023/08/12 05:33:31;;;;;;;;;;;;;;;25.63;52.77;101321.44;6255778;23;19912;-78
2023/08/12 05:36:23;;;;;;;;;;;;;;;25.62;52.96;101319.06;6256223;23;19911;-78
2023/08/12 05:39:15;;;;;;;;;;;;;;;25.63;52.97;101324.25;6254684;23;20343;-78
2023/08/12 05:42:07;;;;;;;;;;;;;;;25.67;52.67;101327.00;6233946;23;20242;-78
2023/08/12 05:44:58;;;;;;;;;;;;;;;25.70;52.49;101326.22;6254890;23;19911;-77
2023/08/12 05:47:50;;;;;;;;;;;;;;;25.71;52.71;101322.22;6254670;23;19915;-76
2023/08/12 05:50:40;;;;;;;;;;;;;;;25.72;52.61;101324.59;6231956;23;19915;-76
2023/08/12 05:53:31;;;;;;;;;;;;;;;25.71;52.89;101325.78;6254472;23;19912;-77
2023/08/12 05:56:23;;;;;;;;;;;;;;;25.70;52.76;101329.00;6233598;23;19912;-77
2023/08/12 05:59:15;;;;;;;;;;;;;;;25.65;53.52;101329.41;6254186;23;19915;-78
2023/08/12 06:02:07;;;;;;;;;;;;;;;25.74;53.06;101327.00;6255410;23;19911;-77
2023/08/12 06:04:59;;;;;;;;;;;;;;;25.71;53.16;101330.56;6253764;23;19911;-78
2023/08/12 06:07:51;;;;;;;;;;;;;;;25.92;52.86;101333.28;6254163;23;19916;-85
2023/08/12 06:10:43;;;;;;;;;;;;;;;25.96;53.02;101325.69;6253332;23;19916;-78
2023/08/12 06:13:35;;;;;;;;;;;;;;;25.95;52.99;101326.91;6232482;23;20258;-79
2023/08/12 06:16:26;;;;;;;;;;;;;;;26.01;52.99;101324.50;6254856;23;19915;-80
2023/08/12 06:19:18;;;;;;;;;;;;;;;26.09;52.83;101328.81;6246392;23;19911;-80
2023/08/12 06:22:10;;;;;;;;;;;;;;;26.22;52.66;101329.97;6255002;23;19915;-80
2023/08/12 06:25:02;;;;;;;;;;;;;;;26.31;52.42;101328.31;6232573;23;19911;-80
2023/08/12 06:27:54;;;;;;;;;;;;;;;26.48;51.97;101329.41;6253576;23;19912;-80
2023/08/12 06:30:46;;;;;;;;;;;;;;;26.52;52.02;101332.94;6251984;23;19916;-80
2023/08/12 06:33:35;;;;;;;;;;;;;;;26.74;51.39;101325.22;6253180;23;19912;-80
2023/08/12 06:36:27;;;;;;;;;;;;;;;26.95;50.71;101330.66;6254647;23;19911;-82
2023/08/12 06:39:17;;;;;;;;;;;;;;;27.03;50.67;101331.38;6252504;23;19916;-81
2023/08/12 06:42:09;;;;;;;;;;;;;;;27.26;49.14;101326.00;6253666;23;19912;-81
2023/08/12 06:45:02;;;;;;;;;;;;;;;27.55;49.09;101332.09;6232301;23;19915;-79
2023/08/12 06:47:53;;;;;;;;;;;;;;;28.05;47.27;101333.06;6253536;23;19916;-80
2023/08/12 06:50:45;;;;;;;;;;;;;;;28.36;46.59;101328.25;6254799;23;19920;-80
2023/08/12 06:53:37;;;;;;;;;;;;;;;28.58;46.64;101328.72;6254870;23;19916;-79
2023/08/12 06:56:29;;;;;;;;;;;;;;;28.55;43.51;101334.38;6254822;23;20331;-80
2023/08/12 06:59:18;;;;;;;;;;;;;;;29.03;41.11;101322.81;6251699;23;19911;-80
2023/08/12 07:02:10;;;;;;;;;;;;;;;29.29;40.22;101327.53;6232514;23;19911;-79
2023/08/12 07:05:00;;;;;;;;;;;;;;;29.40;39.93;101330.97;6252217;23;19931;-79
2023/08/12 07:07:49;;;;;;;;;;;;;;;29.10;41.28;101342.28;6232534;23;19915;-78
2023/08/12 07:10:42;;;;;;;;;;;;;;;30.30;38.64;101334.28;6233001;23;19915;-79
2023/08/12 07:13:34;;;;;;;;;;;;;;;31.38;35.90;101337.66;6255608;23;20200;-80
2023/08/12 07:16:23;;;;;;;;;;;;;;;33.18;32.74;101335.34;6253045;23;19915;-80
2023/08/12 07:19:15;;;;;;;;;;;;;;;35.05;28.72;101342.19;6253921;23;19919;-81
2023/08/12 07:22:07;;;;;;;;;;;;;;;36.77;26.90;101348.03;6252632;23;19916;-82
2023/08/12 07:24:55;;;;;;;;;;;;;;;38.22;25.25;101342.34;6251594;23;19912;-85
2023/08/12 07:27:48;;;;;;;;;;;;;;;36.40;27.18;101348.19;6253815;23;19916;-83
2023/08/12 07:30:40;;;;;;;;;;;;;;;34.46;30.27;101339.81;6232827;23;19915;-80
2023/08/12 07:33:31;;;;;;;;;;;;;;;36.54;26.29;101346.69;6233043;23;20339;-80
2023/08/12 07:36:23;;;;;;;;;;;;;;;36.76;25.62;101352.13;6254435;23;20343;-79
2023/08/12 07:39:15;;;;;;;;;;;;;;;35.69;26.24;101349.94;6254539;23;19915;-81
2023/08/12 07:42:07;;;;;;;;;;;;;;;38.47;23.15;101353.88;6246166;23;19912;-80
2023/08/12 07:44:59;;;;;;;;;;;;;;;37.46;25.47;101353.34;6254266;23;19915;-81
2023/08/12 07:47:51;;;;;;;;;;;;;;;41.10;20.63;101355.25;6252877;23;20243;-81
2023/08/12 07:50:42;;;;;;;;;;;;;;;39.19;23.26;101341.94;6253382;23;19920;-81
2023/08/12 07:53:34;;;;;;;;;;;;;;;38.89;23.96;101350.63;6253608;23;19923;-80
2023/08/12 07:56:24;;;;;;;;;;;;;;;42.10;20.24;101357.56;6253215;23;19911;-82
2023/08/12 07:59:16;;;;;;;;;;;;;;;39.25;22.15;101346.44;6252903;23;19919;-81
2023/08/12 08:02:08;;;;;;;;;;;;;;;40.97;20.68;101354.91;6231307;23;19912;-80
2023/08/12 08:04:58;;;;;;;;;;;;;;;36.19;26.14;101340.72;6254191;23;20326;-84
2023/08/12 08:07:47;;;;;;;;;;;;;;;33.36;30.54;101346.78;6254086;23;19915;-82
2023/08/12 08:10:39;;;;;;;;;;;;;;;40.41;21.58;101356.63;6246023;23;19919;-82
2023/08/12 08:13:32;;;;;;;;;;;;;;;43.60;18.52;101356.34;6250561;23;19915;-83
2023/08/12 08:16:24;;;;;;;;;;;;;;;43.70;18.71;101366.94;6251388;23;19912;-83
2023/08/12 08:19:13;;;;;;;;;;;;;;;37.12;25.97;101348.28;6252874;23;19911;-83
2023/08/12 08:22:05;;;;;;;;;;;;;;;34.57;30.18;101343.78;6230192;23;19920;-85
2023/08/12 08:24:57;;;;;;;;;;;;;;;32.82;33.18;101341.38;6249942;23;20334;-84
2023/08/12 08:27:44;;;;;;;;;;;;;;;31.38;35.73;101334.84;6230074;23;19911;-87
2023/08/12 08:30:36;;;;;;;;;;;;;;;30.91;35.97;101330.84;6251746;23;19916;-82
2023/08/12 08:33:27;;;;;;;;;;;;;;;29.36;40.05;101333.00;6250096;23;20011;-83
2023/08/12 08:36:18;;;;;;;;;;;;;;;30.10;38.90;101341.97;6252262;23;19912;-82
2023/08/12 08:39:08;;;;;;;4.28;2.40;;;;;;;29.92;38.68;101333.91;6252180;23;20356;-85
2023/08/12 08:42:04;;;;;;;2.67;1.85;;;;;;;29.87;38.45;101333.63;6233467;23;20019;-85
2023/08/12 08:45:03;;;;;;;3.95;1.80;;;;;;;30.17;38.13;101333.41;6253974;23;20019;-86
2023/08/12 08:47:56;;;;;;;2.28;1.77;;;;;;;30.27;38.25;101323.94;6261639;23;20019;-83
2023/08/12 08:50:51;;;;;;;4.55;2.00;;;;;;;30.38;38.16;101332.88;6264089;23;20553;-83
2023/08/12 08:53:43;;;;;;;4.13;1.80;;;;;;;30.21;38.61;101322.09;6240567;23;20020;-83
2023/08/12 08:56:39;;;;;;;6.40;2.08;;;;;;;30.19;38.98;101325.31;6240398;23;20047;-82
2023/08/12 08:59:33;;;;;;;7.88;2.33;;;;;;;30.19;39.36;101314.09;6239990;23;20347;-82
2023/08/12 09:02:25;;;;;;;3.58;1.80;;;;;;;30.08;39.36;101319.16;6238544;23;20031;-85
2023/08/12 09:05:21;;;;;;;6.22;2.42;;;;;;;30.12;38.97;101323.44;6237414;23;20486;-85
2023/08/12 09:08:16;;;;;;;5.28;3.08;;;;;;;30.19;39.04;101311.28;6238936;23;20023;-84
2023/08/12 09:11:11;;;;;;;7.78;2.55;;;;;;;30.22;38.60;101312.44;6238493;23;20023;-83
2023/08/12 09:14:06;;;;;;;3.35;1.90;;;;;;;30.21;39.28;101317.28;6239186;23;20027;-83
2023/08/12 09:17:00;;;;;;;2.83;2.00;;;;;;;30.19;39.07;101314.09;6238289;23;20347;-83
2023/08/12 09:19:52;;;;;;;8.55;2.50;;;;;;;30.32;38.75;101311.41;6258450;23;20355;-85
2023/08/12 09:22:45;;;;;;;3.30;1.65;;;;;;;30.31;37.79;101312.63;6259139;23;20027;-85
2023/08/12 09:25:34;;;;;;;2.90;1.88;;;;;;;30.31;37.96;101310.63;6235846;23;20023;-86
2023/08/12 09:28:27;;;;;;;6.13;1.88;;;;;;;30.07;39.05;101306.38;6234792;23;20019;-85
2023/08/12 09:31:32;;;;;;;5.75;1.73;;;;;;;29.84;38.69;101310.03;6258176;23;20023;-86
2023/08/12 09:34:26;;;;;;;9.18;1.67;;;;;;;29.99;38.47;101316.16;6235090;23;20023;-85
2023/08/12 09:37:20;;;;;;;12.05;2.70;;;;;;;30.20;38.87;101309.28;6235405;23;20023;-86
2023/08/12 09:40:16;;;;;;;6.93;2.08;;;;;;;30.45;38.38;101307.47;6231208;23;20351;-83
2023/08/12 09:43:11;;;;;;;4.35;2.30;;;;;;;30.46;38.26;101303.47;6253028;23;20015;-84
2023/08/12 09:46:07;;;;;;;4.95;2.47;;;;;;;30.36;38.64;101300.88;6234581;23;20051;-78
2023/08/12 09:49:01;;;;;;;6.25;2.20;;;;;;;30.33;38.11;101301.75;6254583;23;20019;-84
2023/08/12 09:51:54;;;;;;;3.25;1.90;;;;;;;30.30;38.21;101302.63;6234976;23;20031;-84
2023/08/12 09:54:52;;;;;;;7.03;2.30;;;;;;;30.41;39.07;101298.34;6235365;23;20031;-85
2023/08/12 09:57:49;;;;;;;5.57;2.53;;;;;;;30.55;39.07;101303.66;6256447;23;20019;-84
2023/08/12 10:00:42;;;;;;;8.05;2.55;;;;;;;30.24;38.67;101301.56;6233954;23;20035;-83
2023/08/12 10:03:35;;;;;;;12.73;3.58;;;;;;;30.44;38.73;101299.47;6257214;23;20023;-82
2023/08/12 10:06:29;;;;;;;67.00;6.68;;;;;;;30.32;38.77;101289.75;6257114;23;20020;-82
2023/08/12 10:09:25;;;;;;;5.93;3.33;;;;;;;30.27;39.35;101292.28;6235884;23;20023;-82
2023/08/12 10:12:21;;;;;;;5.95;2.30;;;;;;;30.27;39.32;101284.66;6236070;23;20023;-83
2023/08/12 10:15:15;;;;;;;7.25;3.00;;;;;;;30.32;39.32;101289.75;6236531;23;20382;-82
2023/08/12 10:18:11;;;;;;;4.03;1.77;;;;;;;30.43;39.51;101284.66;6234462;23;20731;-83
2023/08/12 10:21:13;;;;;;;7.00;2.40;;;;;;;30.42;39.82;101283.09;6237119;23;20035;-83
2023/08/12 10:24:08;;;;;;;3.17;1.88;;;;;;;30.64;39.20;101288.19;6261670;23;20030;-81
2023/08/12 10:27:01;;;;;;;5.72;2.10;;;;;;;30.67;39.47;101276.09;6237617;23;20027;-82
2023/08/12 10:29:58;;;;;;;2.92;2.25;;;;;;;30.65;39.67;101270.91;6235906;23;20026;-83
2023/08/12 10:32:50;;;;;;;5.47;2.20;;;;;;;30.65;39.08;101267.31;6256287;23;20020;-82
2023/08/12 10:35:48;;;;;;;7.90;2.00;;;;;;;30.72;39.23;101262.31;6257961;23;20069;-81
2023/08/12 10:38:43;;;;;;;9.45;2.00;;;;;;;30.80;38.91;101258.06;6258141;23;20027;-83
2023/08/12 10:41:37;;;;;;;4.78;1.70;;;;;;;30.93;38.68;101256.13;6256096;23;20015;-81
2023/08/12 10:44:55;;;;;;;4.80;1.90;;;;;;;31.08;37.83;101261.41;6235474;23;20023;-82
2023/08/12 10:47:53;;;;;;;8.25;1.95;;;;;;;31.13;38.26;101246.81;6257387;23;20020;-81
2023/08/12 10:50:50;;;;;;;5.28;2.30;;;;;;;31.11;38.39;101254.88;6235177;23;20351;-82
2023/08/12 10:53:43;;;;;;;4.05;1.80;;;;;;;30.96;38.87;101231.97;6234729;23;20023;-81
2023/08/12 10:57:05;;;;;;;2.60;1.63;;;;;;;31.02;39.00;101235.88;6233709;23;20031;-81
2023/08/12 11:00:02;;;;;;;3.47;1.90;;;;;;;31.21;38.59;101239.75;6244849;23;20022;-83
2023/08/12 11:03:00;;;;;;;2.90;1.98;;;;;;;31.34;38.50;101234.97;6274799;23;20022;-82
2023/08/12 11:05:55;;;;;;;3.90;1.52;;;;;;;31.17;38.93;101228.63;6252603;23;20018;-83
2023/08/12 11:08:58;;;;;;;3.95;2.03;;;;;;;31.35;38.01;101225.28;6273145;23;20324;-82
2023/08/12 11:12:00;;;;;;;3.30;1.92;;;;;;;31.27;37.36;101224.72;6250354;23;20034;-83
2023/08/12 11:14:59;;;;;;;6.60;1.90;;;;;;;31.15;37.64;101233.88;6271525;23;20018;-83
2023/08/12 11:17:55;;;;;;;4.95;1.33;;;;;;;31.26;37.75;101223.13;6248400;23;20038;-83
2023/08/12 11:20:50;;;;;;;2.05;1.60;;;;;;;31.27;38.44;101215.47;6248290;23;20022;-82
2023/08/12 11:23:46;;;;;;;2.40;1.52;;;;;;;31.22;38.20;101222.44;6247021;23;20018;-82
2023/08/12 11:26:43;;;;;;;8.55;2.20;;;;;;;31.18;38.40;101227.38;6245555;23;20027;-82
2023/08/12 11:29:35;;;;;;;3.20;1.73;;;;;;;31.26;38.19;101220.31;6268397;23;20074;-82
2023/08/12 11:32:30;;;;;;;3.13;1.50;;;;;;;31.17;38.13;101208.16;6244476;23;20027;-85
2023/08/12 11:35:26;;;;;;;2.78;1.88;;;;;;;31.20;38.18;101210.84;6242324;23;20026;-84
2023/08/12 11:38:19;;;;;;;7.43;1.58;;;;;;;31.30;39.02;101215.38;6242273;23;20052;-85
2023/08/12 11:41:12;;;;;;;5.93;1.88;;;;;;;31.23;38.75;101206.38;6242481;23;20018;-84
2023/08/12 11:44:04;;;;;;;5.63;1.83;;;;;;;31.35;38.86;101209.19;6241791;23;20030;-86
2023/08/12 11:46:59;;;;;;;5.88;1.90;;;;;;;31.43;38.37;101210.59;6241959;23;20204;-84
2023/08/12 11:49:53;;;;;;;2.55;1.95;;;;;;;31.36;37.82;101199.53;6241118;23;20023;-85
2023/08/12 11:52:46;;;;;;;4.47;1.83;;;;;;;31.46;37.66;101196.84;6240979;23;20023;-84
2023/08/12 11:55:51;;;;;;;2.75;1.30;;;;;;;31.52;37.73;101203.50;6240257;23;20354;-84
2023/08/12 11:58:43;;;;;;;8.20;1.63;;;;;;;31.53;37.66;101196.66;6238484;23;20026;-84
2023/08/12 12:01:35;;;;;;;4.22;1.63;;;;;;;31.60;37.49;101199.25;6258514;23;20019;-84
2023/08/12 12:04:32;;;;;;;5.35;1.90;;;;;;;31.65;37.77;101193.88;6240041;23;20346;-84
2023/08/12 12:07:31;;;;;;;114.55;7.38;;;;;;;31.58;37.32;101190.50;6238794;23;20023;-84
2023/08/12 12:10:28;;;;;;;2.70;1.50;;;;;;;31.75;37.64;101183.50;6238118;23;20015;-84
2023/08/12 12:13:23;;;;;;;9.43;1.88;;;;;;;31.80;37.01;101185.75;6236726;23;20355;-84
2023/08/12 12:16:17;;;;;;;2.88;1.77;;;;;;;31.84;37.02;101178.81;6258659;23;20035;-81
2023/08/12 12:19:14;;;;;;;4.35;1.80;;;;;;;31.81;37.33;101181.72;6234847;23;20023;-83
2023/08/12 12:22:09;;;;;;;5.03;1.92;;;;;;;31.74;37.49;101173.53;6256760;23;20023;-81
2023/08/12 12:25:11;;;;;;;5.70;1.77;;;;;;;31.79;36.85;101175.78;6237602;23;20490;-82
2023/08/12 12:28:05;;;;;;;5.13;2.05;;;;;;;31.92;37.32;101168.09;6237199;23;20019;-83
2023/08/12 12:30:57;;;;;;;3.70;1.92;;;;;;;31.92;37.03;101167.31;6237571;23;20031;-81
2023/08/12 12:33:49;;;;;;;4.35;1.70;;;;;;;31.79;36.92;101167.34;6259573;23;20359;-83
2023/08/12 12:36:40;;;;;;;3.15;1.50;;;;;;;31.82;36.89;101169.25;6236811;23;20023;-82
2023/08/12 12:39:35;;;;;;;2.95;1.80;;;;;;;31.86;37.16;101167.09;6237352;23;20027;-83
2023/08/12 12:42:29;;;;;;;14.95;2.30;;;;;;;31.80;37.55;101154.81;6237442;23;20026;-82
2023/08/12 12:45:24;;;;;;;1.80;1.25;;;;;;;31.92;37.38;101156.84;6237853;23;20349;-82
2023/08/12 12:48:16;;;;;;;5.53;1.83;;;;;;;31.96;36.58;101156.72;6238244;23;20027;-83
2023/08/12 12:51:10;;;;;;;1.92;1.70;;;;;;;31.84;36.82;101153.50;6259912;23;20351;-83
2023/08/12 12:54:03;;;;;;;15.55;2.00;;;;;;;31.92;36.59;101156.06;6237342;23;20347;-82
2023/08/12 12:56:57;;;;;;;4.65;1.65;;;;;;;32.09;36.78;101158.31;6237886;23;20353;-83
2023/08/12 12:59:49;;;;;;;9.68;2.30;;;;;;;31.88;37.18;101147.75;6236340;23;20486;-82
2023/08/12 13:02:41;;;;;;;5.60;1.42;;;;;;;31.95;37.35;101146.72;6258916;23;20034;-81
2023/08/12 13:05:30;;;;;;;;;;;;;;;32.02;36.96;101154.94;6236439;23;20043;-83
2023/08/12 13:08:22;;;;;;;2.28;1.70;;;;;;;32.03;37.37;101151.66;6257246;23;19907;-82
2023/08/12 13:11:17;;;;;;;15.95;2.10;;;;;;;32.11;36.87;101144.59;6236797;23;20511;-84
2023/08/12 13:14:11;;;;;;;7.43;1.88;;;;;;;32.02;36.92;101141.66;6258083;23;20023;-83
2023/08/12 13:17:03;;;;;;;;;;;;;;;32.03;36.54;101146.03;6258349;23;20023;-82
2023/08/12 13:19:53;;;;;;;;;;;;;;;31.88;36.74;101139.31;6233354;23;19911;-83
2023/08/12 13:22:44;;;;;;;;;;;;;;;31.88;36.13;101138.50;6257681;23;19911;-83
2023/08/12 13:25:37;;;;;;;;;;;;;;;31.91;36.65;101131.97;6226787;23;19990;-82
2023/08/12 13:28:30;;;;;;;;;;;;;;;32.00;36.36;101123.66;6239301;23;19907;-81
2023/08/12 13:31:19;;;;;;;;;;;;;;;32.08;36.24;101125.75;6257998;23;20330;-86
2023/08/12 13:34:08;;;;;;;;;;;;;;;32.06;36.36;101116.19;6251748;23;19912;-83
2023/08/12 13:37:00;;;;;;;;;;;;;;;32.08;35.96;101117.31;6255050;23;19908;-83
2023/08/12 13:39:53;;;;;;;;;;;;;;;32.09;36.22;101110.47;6251514;23;19911;-83
2023/08/12 13:42:45;;;;;;;;;;;;;;;32.01;36.69;101109.09;6234368;23;20498;-84
2023/08/12 13:45:37;;;;;;;;;;;;;;;32.07;36.55;101110.13;6234264;23;19911;-83
2023/08/12 13:48:29;;;;;;;;;;;;;;;32.03;36.59;101106.63;6232850;23;19911;-82
2023/08/12 13:51:21;;;;;;;;;;;;;;;32.06;36.47;101100.09;6255345;23;19911;-84
2023/08/12 13:54:08;;;;;;;;;;;;;;;32.21;35.67;101089.16;6254607;23;19907;-82
2023/08/12 13:57:00;;;;;;;;;;;;;;;32.27;36.11;101092.97;6234107;23;19907;-83
2023/08/12 13:59:47;;;;;;;;;;;;;;;32.29;36.26;101084.06;6267189;23;19903;-87
2023/08/12 14:02:32;;;;;;;;;;;;;;;32.24;36.54;101079.81;6257283;23;20344;-87
2023/08/12 14:05:22;;;;;;;;;;;;;;;32.24;36.09;101077.78;6257406;23;19907;-87
2023/08/12 14:08:11;;;;;;;;;;;;;;;32.22;36.55;101071.81;6257324;23;19908;-86
2023/08/12 14:10:59;;;;;;;;;;;;;;;32.23;36.50;101073.41;6282953;22;19903;-85
2023/08/12 14:13:51;;;;;;;;;;;;;;;32.18;36.62;101068.34;6260058;22;19916;-87
2023/08/12 14:16:43;;;;;;;;;;;;;;;32.05;37.18;101059.13;6258011;23;19908;-87
2023/08/12 14:19:33;;;;;;;;;;;;;;;31.97;37.05;101063.44;6258997;23;19896;-86